Roanoke, Virginia
Current Conditions -  °F | °C
As of 11:54 PM on Wednesday 26 Nov 2014 (Local Time) from KROA Reporting Station
Overcast Overcast  
Wind Chill:   Ceiling: 15000
Heat Index:   Visibility: 10mi
Dew Point:   Wind: 0mph
Humidity: 89%   Direction: NA
Pressure: 30.01"   Gusts: NA
Location:  37.27°N, 79.94°W
Report Text: KROA 270454Z 00000KT 10SM OVC150 02/01 A3001 RMK AO2 SLP171 T00220006 400720000
Loading
Personal Weather Stations






























Interactive Weather Map New forecast layout! Learn more

10-Day Weather Forecast

Advertisements
Track Severe Weather on mobile